Time;durP1;ratioP1;P1;durP2;ratioP2;P2;SDS_P1;SDS_P2;PMS_P1;PMS_P2;Temp;Humidity;BMP_temperature;BMP_pressure;BME280_temperature;BME280_humidity;BME280_pressure;Samples;Min_cycle;Max_cycle;Signal;HPM_P1;HPM_P2
2023/11/10 00:02:22;;;;;;;3.40;2.30;;;;;;;;;;5093359;28;20447;-58
2023/11/10 00:04:49;;;;;;;3.07;2.20;;;;;;;;;;5093239;28;20863;-57
2023/11/10 00:07:17;;;;;;;3.60;1.97;;;;;;;;;;5093209;28;20450;-57
2023/11/10 00:09:46;;;;;;;3.20;1.70;;;;;;;;;;5093390;28;20950;-58
2023/11/10 00:12:13;;;;;;;2.27;2.07;;;;;;;;;;5093261;28;20521;-58
2023/11/10 00:14:40;;;;;;;2.10;2.00;;;;;;;;;;5093060;28;20466;-57
2023/11/10 00:17:09;;;;;;;2.30;2.20;;;;;;;;;;5093134;28;20449;-58
2023/11/10 00:19:36;;;;;;;2.50;2.00;;;;;;;;;;5092251;28;20449;-58
2023/11/10 00:22:04;;;;;;;2.50;2.30;;;;;;;;;;5093059;28;20938;-57
2023/11/10 00:24:33;;;;;;;2.60;2.40;;;;;;;;;;5093154;28;20779;-55
2023/11/10 00:27:01;;;;;;;2.60;2.40;;;;;;;;;;5093021;28;20446;-57
2023/11/10 00:29:28;;;;;;;2.17;1.90;;;;;;;;;;5093082;28;20529;-57
2023/11/10 00:31:56;;;;;;;2.17;1.97;;;;;;;;;;5092953;28;20450;-59
2023/11/10 00:34:22;;;;;;;2.30;2.10;;;;;;;;;;5092777;28;21012;-57
2023/11/10 00:36:49;;;;;;;2.50;2.30;;;;;;;;;;5093319;28;20445;-57
2023/11/10 00:39:19;;;;;;;2.60;2.43;;;;;;;;;;5093091;28;20564;-57
2023/11/10 00:41:46;;;;;;;5.23;2.70;;;;;;;;;;5093001;28;20470;-56
2023/11/10 00:44:15;;;;;;;2.43;2.30;;;;;;;;;;5092867;28;20502;-57
2023/11/10 00:46:42;;;;;;;2.20;2.00;;;;;;;;;;5092770;28;20529;-57
2023/11/10 00:49:09;;;;;;;2.20;2.03;;;;;;;;;;5092963;28;20990;-57
2023/11/10 00:51:36;;;;;;;2.20;1.73;;;;;;;;;;5092978;28;20443;-57
2023/11/10 00:54:04;;;;;;;2.83;2.20;;;;;;;;;;5092778;28;20552;-57
2023/11/10 00:56:30;;;;;;;2.43;2.10;;;;;;;;;;5092850;28;20894;-56
2023/11/10 00:58:58;;;;;;;1.80;1.70;;;;;;;;;;5092765;28;20874;-58
2023/11/10 01:01:27;;;;;;;1.83;1.60;;;;;;;;;;5092600;28;20855;-57
2023/11/10 01:03:54;;;;;;;2.20;2.00;;;;;;;;;;5093050;28;20492;-57
2023/11/10 01:06:21;;;;;;;1.97;1.87;;;;;;;;;;5092836;28;20443;-60
2023/11/10 01:08:48;;;;;;;3.83;1.93;;;;;;;;;;5092725;28;20435;-58
2023/11/10 01:11:16;;;;;;;1.80;1.70;;;;;;;;;;5092713;28;20466;-56
2023/11/10 01:13:43;;;;;;;2.00;1.90;;;;;;;;;;5092544;28;20474;-57
2023/11/10 01:16:10;;;;;;;1.93;1.83;;;;;;;;;;5092657;28;20565;-57
2023/11/10 01:18:38;;;;;;;2.10;1.80;;;;;;;;;;5092435;28;20945;-56
2023/11/10 01:21:07;;;;;;;1.43;1.33;;;;;;;;;;5092568;28;20446;-58
2023/11/10 01:23:34;;;;;;;2.03;1.93;;;;;;;;;;5092560;28;20446;-57
2023/11/10 01:26:01;;;;;;;2.07;1.70;;;;;;;;;;5092479;28;20788;-57
2023/11/10 01:28:28;;;;;;;1.80;1.70;;;;;;;;;;5092317;28;20442;-58
2023/11/10 01:30:55;;;;;;;2.17;2.07;;;;;;;;;;5093405;28;20597;-57
2023/11/10 01:33:22;;;;;;;3.80;1.93;;;;;;;;;;5096321;28;20450;-57
2023/11/10 01:35:52;;;;;;;2.20;2.00;;;;;;;;;;5095932;28;20482;-58
2023/11/10 01:38:19;;;;;;;1.90;1.80;;;;;;;;;;5095935;28;20450;-57
2023/11/10 01:40:46;;;;;;;3.20;1.80;;;;;;;;;;5095816;28;20519;-57
2023/11/10 01:43:15;;;;;;;3.60;1.80;;;;;;;;;;5095920;28;21016;-58
2023/11/10 01:45:42;;;;;;;5.07;2.00;;;;;;;;;;5096017;28;20485;-58
2023/11/10 01:48:10;;;;;;;2.00;1.80;;;;;;;;;;5095862;28;20536;-57
2023/11/10 01:50:39;;;;;;;2.23;1.93;;;;;;;;;;5095783;28;20571;-57
2023/11/10 01:53:09;;;;;;;1.80;1.70;;;;;;;;;;5095642;28;20452;-57
2023/11/10 01:55:37;;;;;;;2.40;2.07;;;;;;;;;;5095501;28;20488;-57
2023/11/10 01:58:05;;;;;;;4.43;2.20;;;;;;;;;;5095741;28;20965;-56
2023/11/10 02:00:32;;;;;;;3.47;1.57;;;;;;;;;;5095846;28;20454;-56
2023/11/10 02:03:01;;;;;;;2.23;2.03;;;;;;;;;;5095724;28;20533;-57
2023/11/10 02:05:28;;;;;;;4.23;1.70;;;;;;;;;;5095411;28;20488;-57
2023/11/10 02:07:55;;;;;;;1.80;1.70;;;;;;;;;;5095287;28;20500;-56
2023/11/10 02:10:23;;;;;;;1.70;1.60;;;;;;;;;;5095488;28;20443;-57
2023/11/10 02:12:51;;;;;;;2.50;1.87;;;;;;;;;;5095409;28;20447;-56
2023/11/10 02:15:18;;;;;;;3.73;1.87;;;;;;;;;;5095205;28;20482;-57
2023/11/10 02:17:45;;;;;;;1.60;1.50;;;;;;;;;;5095349;28;20538;-56
2023/11/10 02:20:12;;;;;;;1.70;1.50;;;;;;;;;;5095213;28;20485;-57
2023/11/10 02:22:42;;;;;;;1.87;1.10;;;;;;;;;;5095074;28;20446;-57
2023/11/10 02:25:13;;;;;;;2.03;1.80;;;;;;;;;;5095657;28;20527;-57
2023/11/10 02:27:40;;;;;;;4.37;1.47;;;;;;;;;;5095084;28;20442;-57
2023/11/10 02:30:07;;;;;;;3.03;1.47;;;;;;;;;;5094956;28;20530;-57
2023/11/10 02:32:34;;;;;;;1.37;1.27;;;;;;;;;;5094905;28;20474;-57
2023/11/10 02:35:01;;;;;;;3.23;1.67;;;;;;;;;;5094665;28;20668;-57
2023/11/10 02:37:28;;;;;;;1.37;1.20;;;;;;;;;;5094988;28;21001;-57
2023/11/10 02:39:55;;;;;;;2.13;1.20;;;;;;;;;;5094833;28;20541;-58
2023/11/10 02:42:23;;;;;;;4.20;1.63;;;;;;;;;;5094141;28;20533;-57
2023/11/10 02:44:50;;;;;;;3.27;1.50;;;;;;;;;;5094746;28;20471;-57
2023/11/10 02:47:17;;;;;;;2.17;1.50;;;;;;;;;;5094593;28;20443;-57
2023/11/10 02:49:44;;;;;;;2.33;1.37;;;;;;;;;;5094509;28;20443;-56
2023/11/10 02:52:11;;;;;;;1.43;1.20;;;;;;;;;;5094564;28;20533;-57
2023/11/10 02:54:38;;;;;;;5.00;1.30;;;;;;;;;;5094309;28;20930;-57
2023/11/10 02:57:05;;;;;;;3.00;1.47;;;;;;;;;;5094469;28;20445;-54
2023/11/10 02:59:33;;;;;;;1.33;1.23;;;;;;;;;;5094380;28;20442;-56
2023/11/10 03:02:00;;;;;;;2.67;1.73;;;;;;;;;;5094292;28;20473;-57
2023/11/10 03:04:27;;;;;;;2.00;1.20;;;;;;;;;;5094217;28;20852;-57
2023/11/10 03:06:54;;;;;;;2.23;1.70;;;;;;;;;;5094399;28;20537;-57
2023/11/10 03:09:23;;;;;;;2.30;1.20;;;;;;;;;;5094227;28;20484;-58
2023/11/10 03:11:50;;;;;;;1.80;1.43;;;;;;;;;;5094137;28;20508;-57
2023/11/10 03:14:17;;;;;;;3.00;1.40;;;;;;;;;;5094080;28;21040;-57
2023/11/10 03:16:45;;;;;;;1.40;1.17;;;;;;;;;;5093922;28;20486;-56
2023/11/10 03:19:12;;;;;;;2.07;1.13;;;;;;;;;;5094161;28;20826;-57
2023/11/10 03:21:39;;;;;;;1.70;1.00;;;;;;;;;;5094294;28;20449;-58
2023/11/10 03:24:07;;;;;;;3.10;1.03;;;;;;;;;;5094007;28;20450;-57
2023/11/10 03:26:35;;;;;;;1.97;1.30;;;;;;;;;;5093859;28;20543;-58
2023/11/10 03:29:03;;;;;;;3.30;2.00;;;;;;;;;;5093760;28;20444;-57
2023/11/10 03:31:31;;;;;;;2.60;1.40;;;;;;;;;;5093624;28;20438;-56
2023/11/10 03:33:59;;;;;;;2.20;1.40;;;;;;;;;;5093953;28;20443;-57
2023/11/10 03:36:26;;;;;;;2.43;1.97;;;;;;;;;;5093696;28;20482;-56
2023/11/10 03:38:54;;;;;;;2.10;1.50;;;;;;;;;;5093709;28;20453;-57
2023/11/10 03:41:21;;;;;;;1.43;1.33;;;;;;;;;;5093510;28;20937;-57
2023/11/10 03:43:48;;;;;;;1.10;1.00;;;;;;;;;;5093228;28;20562;-57
2023/11/10 03:46:15;;;;;;;3.50;1.30;;;;;;;;;;5093700;28;20454;-56
2023/11/10 03:48:42;;;;;;;2.30;1.40;;;;;;;;;;5093605;28;20542;-57
2023/11/10 03:51:11;;;;;;;6.10;1.50;;;;;;;;;;5093777;28;20537;-57
2023/11/10 03:53:38;;;;;;;3.60;2.30;;;;;;;;;;5093216;28;20443;-58
2023/11/10 03:56:06;;;;;;;1.63;1.17;;;;;;;;;;5092620;28;20578;-58
2023/11/10 03:58:32;;;;;;;1.93;1.20;;;;;;;;;;5093242;28;20869;-57
2023/11/10 04:01:00;;;;;;;2.40;1.20;;;;;;;;;;5093426;28;20537;-56
2023/11/10 04:03:27;;;;;;;5.73;1.40;;;;;;;;;;5093390;28;20442;-56
2023/11/10 04:05:54;;;;;;;1.40;1.30;;;;;;;;;;5093368;28;20533;-56
2023/11/10 04:08:22;;;;;;;2.73;1.30;;;;;;;;;;5093226;28;20442;-55
2023/11/10 04:10:49;;;;;;;2.80;1.50;;;;;;;;;;5093029;28;20442;-54
2023/11/10 04:13:16;;;;;;;1.67;1.40;;;;;;;;;;5093296;28;21021;-55
2023/11/10 04:15:43;;;;;;;2.23;1.60;;;;;;;;;;5093343;28;20486;-58
2023/11/10 04:18:10;;;;;;;1.40;1.30;;;;;;;;;;5093181;28;20485;-57
2023/11/10 04:20:37;;;;;;;1.40;1.30;;;;;;;;;;5093170;28;20533;-57
2023/11/10 04:23:04;;;;;;;1.73;1.30;;;;;;;;;;5093022;28;20450;-57
2023/11/10 04:25:32;;;;;;;1.30;1.07;;;;;;;;;;5093415;28;20867;-57
2023/11/10 04:28:00;;;;;;;2.47;1.17;;;;;;;;;;5093245;28;20874;-56
2023/11/10 04:30:28;;;;;;;2.67;1.73;;;;;;;;;;5093016;28;20464;-57
2023/11/10 04:32:55;;;;;;;3.10;1.40;;;;;;;;;;5092933;28;20454;-57
2023/11/10 04:35:22;;;;;;;1.93;1.33;;;;;;;;;;5092793;28;21050;-56
2023/11/10 04:37:50;;;;;;;1.43;1.20;;;;;;;;;;5092865;28;20445;-57
2023/11/10 04:40:18;;;;;;;2.80;1.40;;;;;;;;;;5093365;28;20439;-57
2023/11/10 04:42:46;;;;;;;3.33;1.20;;;;;;;;;;5093030;28;20442;-55
2023/11/10 04:45:13;;;;;;;2.63;1.43;;;;;;;;;;5093004;28;21076;-56
2023/11/10 04:47:40;;;;;;;3.77;1.20;;;;;;;;;;5092882;28;20530;-57
2023/11/10 04:50:07;;;;;;;2.07;1.70;;;;;;;;;;5092920;28;20539;-57
2023/11/10 04:52:35;;;;;;;1.67;1.17;;;;;;;;;;5092664;28;20451;-56
2023/11/10 04:55:02;;;;;;;1.77;1.50;;;;;;;;;;5092815;28;20438;-57
2023/11/10 04:57:29;;;;;;;2.50;1.20;;;;;;;;;;5092846;28;20806;-58
2023/11/10 04:59:58;;;;;;;1.30;1.20;;;;;;;;;;5092728;28;20933;-57
2023/11/10 05:02:24;;;;;;;1.53;1.30;;;;;;;;;;5092739;28;20533;-56
2023/11/10 05:04:51;;;;;;;1.27;1.17;;;;;;;;;;5092579;28;20537;-55
2023/11/10 05:07:18;;;;;;;2.30;1.17;;;;;;;;;;5096050;28;20872;-56
2023/11/10 05:09:45;;;;;;;3.30;1.43;;;;;;;;;;5096574;28;20442;-55
2023/11/10 05:12:12;;;;;;;1.30;1.20;;;;;;;;;;5096702;28;20533;-56
2023/11/10 05:14:41;;;;;;;1.57;1.47;;;;;;;;;;5096515;28;20530;-56
2023/11/10 05:17:09;;;;;;;2.10;1.20;;;;;;;;;;5096253;28;20478;-57
2023/11/10 05:19:36;;;;;;;3.10;1.40;;;;;;;;;;5096272;28;20529;-58
2023/11/10 05:22:03;;;;;;;4.70;1.27;;;;;;;;;;5096149;28;21020;-57
2023/11/10 05:24:30;;;;;;;1.30;1.20;;;;;;;;;;5096190;28;20442;-56
2023/11/10 05:26:59;;;;;;;1.30;1.20;;;;;;;;;;5096268;28;20474;-56
2023/11/10 05:29:25;;;;;;;2.10;1.90;;;;;;;;;;5096107;28;20442;-57
2023/11/10 05:31:55;;;;;;;2.50;1.30;;;;;;;;;;5096079;28;20533;-57
2023/11/10 05:34:23;;;;;;;1.40;1.30;;;;;;;;;;5095906;28;20491;-57
2023/11/10 05:36:50;;;;;;;1.50;1.30;;;;;;;;;;5096311;28;20492;-57
2023/11/10 05:39:17;;;;;;;1.53;1.10;;;;;;;;;;5096154;28;20520;-56
2023/11/10 05:41:44;;;;;;;1.30;1.20;;;;;;;;;;5095900;28;20878;-56
2023/11/10 05:44:11;;;;;;;1.97;1.10;;;;;;;;;;5095687;28;20566;-57
2023/11/10 05:46:39;;;;;;;1.37;1.20;;;;;;;;;;5095663;28;20443;-56
2023/11/10 05:49:06;;;;;;;1.90;1.27;;;;;;;;;;5095844;28;20453;-57
2023/11/10 05:51:34;;;;;;;1.13;1.03;;;;;;;;;;5095659;28;20802;-58
2023/11/10 05:54:01;;;;;;;1.40;1.30;;;;;;;;;;5095474;28;20929;-58
2023/11/10 05:56:29;;;;;;;2.77;1.40;;;;;;;;;;5095505;28;20482;-58
2023/11/10 05:58:58;;;;;;;2.20;1.50;;;;;;;;;;5095420;28;20469;-58
2023/11/10 06:01:25;;;;;;;1.43;1.30;;;;;;;;;;5095397;28;20443;-58
2023/11/10 06:03:52;;;;;;;2.13;1.20;;;;;;;;;;5095538;28;20443;-57
2023/11/10 06:06:19;;;;;;;1.90;1.20;;;;;;;;;;5095607;28;20443;-58
2023/11/10 06:08:47;;;;;;;1.83;1.40;;;;;;;;;;5095359;28;20594;-57
2023/11/10 06:11:21;;;;;;;1.87;1.53;;;;;;;;;;5095334;28;20529;-58
2023/11/10 06:13:48;;;;;;;1.20;1.10;;;;;;;;;;5095173;28;20449;-58
2023/11/10 06:16:15;;;;;;;2.00;1.50;;;;;;;;;;5095313;28;20909;-56
2023/11/10 06:18:44;;;;;;;1.10;1.00;;;;;;;;;;5093991;28;20525;-57
2023/11/10 06:21:11;;;;;;;1.97;1.23;;;;;;;;;;5095099;28;20449;-57
2023/11/10 06:23:38;;;;;;;5.20;1.37;;;;;;;;;;5095021;28;20442;-58
2023/11/10 06:26:06;;;;;;;1.30;1.20;;;;;;;;;;5094755;28;20452;-58
2023/11/10 06:28:34;;;;;;;2.73;1.30;;;;;;;;;;5095026;28;20525;-57
2023/11/10 06:31:03;;;;;;;2.43;2.03;;;;;;;;;;5095010;28;21051;-56
2023/11/10 06:33:30;;;;;;;2.23;1.50;;;;;;;;;;5094865;28;20447;-58
2023/11/10 06:35:58;;;;;;;2.20;1.30;;;;;;;;;;5094833;28;20467;-59
2023/11/10 06:38:25;;;;;;;2.83;1.30;;;;;;;;;;5094690;28;20443;-57
2023/11/10 06:40:53;;;;;;;1.73;1.40;;;;;;;;;;5094406;28;20447;-57
2023/11/10 06:43:21;;;;;;;1.63;1.20;;;;;;;;;;5094357;28;20504;-58
2023/11/10 06:45:48;;;;;;;2.47;1.50;;;;;;;;;;5094765;28;20453;-58
2023/11/10 06:48:15;;;;;;;3.93;1.07;;;;;;;;;;5094565;28;20612;-57
2023/11/10 06:50:42;;;;;;;1.20;1.10;;;;;;;;;;5094330;28;20534;-58
2023/11/10 06:53:10;;;;;;;1.87;1.70;;;;;;;;;;5094394;28;20569;-57
2023/11/10 06:55:37;;;;;;;1.30;1.20;;;;;;;;;;5094673;28;20782;-58
2023/11/10 06:58:05;;;;;;;1.10;1.00;;;;;;;;;;5094520;28;20802;-57
2023/11/10 07:00:33;;;;;;;1.13;1.03;;;;;;;;;;5094374;28;20443;-56
2023/11/10 07:03:00;;;;;;;3.83;1.40;;;;;;;;;;5094290;28;20447;-57
2023/11/10 07:05:28;;;;;;;1.73;1.60;;;;;;;;;;5094278;28;20447;-57
2023/11/10 07:07:55;;;;;;;2.30;1.77;;;;;;;;;;5094036;28;20533;-57
2023/11/10 07:10:22;;;;;;;2.07;1.60;;;;;;;;;;5094547;28;20439;-57
2023/11/10 07:12:49;;;;;;;2.10;1.60;;;;;;;;;;5094218;28;20529;-59
2023/11/10 07:15:16;;;;;;;1.80;1.70;;;;;;;;;;5097928;28;20973;-58
2023/11/10 07:17:44;;;;;;;1.40;1.20;;;;;;;;;;5112256;28;20486;-58
2023/11/10 07:20:11;;;;;;;1.30;1.20;;;;;;;;;;5113696;28;20513;-58
2023/11/10 07:22:39;;;;;;;1.73;1.30;;;;;;;;;;5113736;28;20476;-58
2023/11/10 07:25:07;;;;;;;1.73;1.20;;;;;;;;;;5112480;28;20453;-58
2023/11/10 07:27:34;;;;;;;1.40;1.00;;;;;;;;;;5113576;28;20460;-59
2023/11/10 07:30:01;;;;;;;1.67;1.03;;;;;;;;;;5113390;28;20483;-57
2023/11/10 07:32:30;;;;;;;1.30;0.90;;;;;;;;;;5113250;28;20453;-58
2023/11/10 07:34:58;;;;;;;1.40;1.10;;;;;;;;;;5112979;28;20434;-59
2023/11/10 07:37:25;;;;;;;4.93;1.47;;;;;;;;;;5110717;28;20474;-58
2023/11/10 07:39:53;;;;;;;1.30;0.83;;;;;;;;;;5113617;28;20442;-58
2023/11/10 07:42:21;;;;;;;1.43;1.10;;;;;;;;;;5113471;28;20881;-61
2023/11/10 07:44:48;;;;;;;1.10;1.00;;;;;;;;;;5113050;28;20480;-59
2023/11/10 07:47:14;;;;;;;1.97;1.13;;;;;;;;;;5113233;28;20881;-60
2023/11/10 07:49:42;;;;;;;2.27;0.90;;;;;;;;;;5113348;28;21024;-59
2023/11/10 07:52:10;;;;;;;2.03;1.00;;;;;;;;;;5113924;28;20444;-60
2023/11/10 07:54:37;;;;;;;1.70;1.10;;;;;;;;;;5113769;28;20853;-60
2023/11/10 07:57:04;;;;;;;1.37;1.20;;;;;;;;;;5113545;28;20568;-59
2023/11/10 07:59:31;;;;;;;1.17;0.97;;;;;;;;;;5113528;28;20452;-60
2023/11/10 08:02:01;;;;;;;1.10;0.90;;;;;;;;;;5113449;28;20870;-59
2023/11/10 08:04:28;;;;;;;1.20;1.00;;;;;;;;;;5113816;28;20518;-60
2023/11/10 08:06:55;;;;;;;4.07;0.90;;;;;;;;;;5113448;28;20442;-60
2023/11/10 08:09:23;;;;;;;1.97;1.10;;;;;;;;;;5113504;28;20530;-61
2023/11/10 08:11:50;;;;;;;1.10;0.80;;;;;;;;;;5113326;28;20541;-60
2023/11/10 08:14:17;;;;;;;2.10;1.20;;;;;;;;;;5113206;28;20940;-60
2023/11/10 08:16:44;;;;;;;1.53;1.00;;;;;;;;;;5113323;28;20552;-60
2023/11/10 08:19:11;;;;;;;5.17;1.60;;;;;;;;;;5113351;28;20812;-60
2023/11/10 08:21:38;;;;;;;1.27;1.17;;;;;;;;;;5113295;28;20525;-59
2023/11/10 08:24:05;;;;;;;1.50;1.30;;;;;;;;;;5112936;28;20433;-59
2023/11/10 08:26:34;;;;;;;1.80;1.60;;;;;;;;;;5113253;28;20932;-60
2023/11/10 08:29:01;;;;;;;1.60;1.40;;;;;;;;;;5113158;28;20532;-60
2023/11/10 08:31:28;;;;;;;1.67;1.10;;;;;;;;;;5113432;28;20437;-59
2023/11/10 08:33:55;;;;;;;1.13;0.83;;;;;;;;;;5113148;28;20442;-60
2023/11/10 08:36:22;;;;;;;1.10;1.00;;;;;;;;;;5113027;28;20487;-60
2023/11/10 08:38:49;;;;;;;1.80;1.10;;;;;;;;;;5113229;28;20446;-57
2023/11/10 08:41:17;;;;;;;3.77;1.00;;;;;;;;;;5114583;28;20491;-60
2023/11/10 08:43:46;;;;;;;1.03;0.90;;;;;;;;;;5116906;28;20469;-60
2023/11/10 08:46:13;;;;;;;1.83;0.90;;;;;;;;;;5117421;28;20503;-59
2023/11/10 08:48:40;;;;;;;3.27;0.73;;;;;;;;;;5117179;28;20688;-58
2023/11/10 08:51:07;;;;;;;0.80;0.70;;;;;;;;;;5117194;28;20532;-59
2023/11/10 08:53:34;;;;;;;0.90;0.70;;;;;;;;;;5116933;28;20449;-60
2023/11/10 08:56:01;;;;;;;3.77;1.00;;;;;;;;;;5116990;28;20445;-59
2023/11/10 08:58:28;;;;;;;0.80;0.70;;;;;;;;;;5115712;28;20914;-61
2023/11/10 09:00:58;;;;;;;2.73;1.13;;;;;;;;;;5117240;28;20532;-60
2023/11/10 09:03:25;;;;;;;2.50;0.90;;;;;;;;;;5117189;28;20842;-60
2023/11/10 09:05:52;;;;;;;2.77;0.90;;;;;;;;;;5116831;28;20801;-63
2023/11/10 09:08:19;;;;;;;1.27;0.70;;;;;;;;;;5116195;28;20441;-61
2023/11/10 09:10:46;;;;;;;1.27;0.70;;;;;;;;;;5116797;28;20537;-63
2023/11/10 09:13:12;;;;;;;1.17;0.70;;;;;;;;;;5116639;28;20899;-60
2023/11/10 09:15:39;;;;;;;1.47;0.80;;;;;;;;;;5116509;28;20530;-62
2023/11/10 09:18:09;;;;;;;1.40;0.80;;;;;;;;;;5116678;28;20533;-58
2023/11/10 09:20:36;;;;;;;0.90;0.70;;;;;;;;;;5116621;28;20446;-59
2023/11/10 09:23:03;;;;;;;1.33;0.90;;;;;;;;;;5116545;28;20537;-60
2023/11/10 09:25:30;;;;;;;0.80;0.70;;;;;;;;;;5116460;28;20825;-59
2023/11/10 09:27:57;;;;;;;0.97;0.87;;;;;;;;;;5116500;28;20536;-61
2023/11/10 09:30:25;;;;;;;1.30;1.10;;;;;;;;;;5116268;28;20502;-61
2023/11/10 09:32:52;;;;;;;1.60;0.80;;;;;;;;;;5116633;28;20468;-60
2023/11/10 09:35:20;;;;;;;1.83;1.00;;;;;;;;;;5116279;28;20442;-60
2023/11/10 09:37:48;;;;;;;2.13;0.80;;;;;;;;;;5116071;28;20477;-60
2023/11/10 09:40:19;;;;;;;1.37;0.93;;;;;;;;;;5116092;28;20524;-59
2023/11/10 09:42:46;;;;;;;0.80;0.77;;;;;;;;;;5116028;28;21004;-59
2023/11/10 09:45:13;;;;;;;1.17;0.83;;;;;;;;;;5115801;28;20498;-60
2023/11/10 09:47:41;;;;;;;1.30;0.97;;;;;;;;;;5116475;28;20445;-60
2023/11/10 09:50:08;;;;;;;2.10;1.07;;;;;;;;;;5116084;28;20452;-58
2023/11/10 09:52:38;;;;;;;1.27;1.20;;;;;;;;;;5115779;28;20993;-60
2023/11/10 09:55:05;;;;;;;1.00;0.80;;;;;;;;;;5115749;28;20932;-58
2023/11/10 09:57:32;;;;;;;2.07;0.90;;;;;;;;;;5115554;28;20556;-61
2023/11/10 09:59:59;;;;;;;1.40;1.10;;;;;;;;;;5116041;28;20445;-61
2023/11/10 10:02:27;;;;;;;1.00;0.83;;;;;;;;;;5115886;28;20542;-61
2023/11/10 10:04:54;;;;;;;2.43;1.10;;;;;;;;;;5115577;28;20448;-62
2023/11/10 10:07:22;;;;;;;1.47;0.90;;;;;;;;;;5115699;28;20977;-60
2023/11/10 10:09:50;;;;;;;1.07;0.97;;;;;;;;;;5115787;28;20442;-60
2023/11/10 10:12:17;;;;;;;3.83;1.03;;;;;;;;;;5115640;28;20540;-60
2023/11/10 10:14:54;;;;;;;2.90;1.30;;;;;;;;;;5115398;28;20940;-59
2023/11/10 10:17:21;;;;;;;1.37;1.27;;;;;;;;;;5115203;28;20926;-59
2023/11/10 10:19:48;;;;;;;1.20;1.00;;;;;;;;;;5115238;28;20552;-60
2023/11/10 10:22:23;;;;;;;1.37;1.10;;;;;;;;;;5115482;28;20442;-59
2023/11/10 10:24:52;;;;;;;2.20;1.00;;;;;;;;;;5115310;28;20535;-59
2023/11/10 10:27:19;;;;;;;1.30;1.07;;;;;;;;;;5115360;28;20536;-58
2023/11/10 10:29:46;;;;;;;1.57;1.03;;;;;;;;;;5115273;28;20448;-60
2023/11/10 10:32:14;;;;;;;1.67;1.10;;;;;;;;;;5115028;28;20494;-60
2023/11/10 10:34:42;;;;;;;1.40;1.30;;;;;;;;;;5115331;28;20445;-59
2023/11/10 10:37:10;;;;;;;1.27;1.10;;;;;;;;;;5115069;28;20900;-60
2023/11/10 10:39:38;;;;;;;1.10;0.80;;;;;;;;;;5115037;28;20869;-60
2023/11/10 10:42:09;;;;;;;1.40;0.90;;;;;;;;;;5114742;28;20445;-60
2023/11/10 10:44:36;;;;;;;1.10;1.00;;;;;;;;;;5114678;28;20560;-60
2023/11/10 10:47:04;;;;;;;1.77;1.00;;;;;;;;;;5114880;28;20850;-60
2023/11/10 10:49:31;;;;;;;1.17;0.90;;;;;;;;;;5114748;28;20442;-59
2023/11/10 10:51:59;;;;;;;0.80;0.80;;;;;;;;;;5115215;28;20524;-59
2023/11/10 10:54:26;;;;;;;1.03;0.83;;;;;;;;;;5114683;28;20442;-60
2023/11/10 10:56:53;;;;;;;4.20;1.03;;;;;;;;;;5114516;28;20526;-60
2023/11/10 10:59:21;;;;;;;1.20;1.10;;;;;;;;;;5114475;28;20556;-59
2023/11/10 11:01:50;;;;;;;1.17;0.93;;;;;;;;;;5114757;28;20846;-59
2023/11/10 11:04:29;;;;;;;0.90;0.80;;;;;;;;;;5114075;28;20446;-61
2023/11/10 11:07:16;;;;;;;1.93;0.90;;;;;;;;;;5114488;28;20525;-59
2023/11/10 11:09:53;;;;;;;1.83;0.97;;;;;;;;;;5114431;28;20448;-59
2023/11/10 11:12:32;;;;;;;1.73;0.83;;;;;;;;;;5114701;28;20778;-60
2023/11/10 11:15:06;;;;;;;1.97;1.17;;;;;;;;;;5114491;28;20446;-59
2023/11/10 11:17:52;;;;;;;3.20;0.87;;;;;;;;;;5114241;28;20468;-60
2023/11/10 11:20:20;;;;;;;1.57;1.07;;;;;;;;;;5113893;28;20442;-59
2023/11/10 11:22:48;;;;;;;1.90;1.00;;;;;;;;;;5113862;28;20770;-59
2023/11/10 11:25:16;;;;;;;1.87;0.90;;;;;;;;;;5114051;28;20491;-59
2023/11/10 11:27:44;;;;;;;3.17;1.00;;;;;;;;;;5114070;28;20895;-59
2023/11/10 11:30:15;;;;;;;2.80;1.20;;;;;;;;;;5113710;28;20448;-59
2023/11/10 11:32:42;;;;;;;1.47;0.90;;;;;;;;;;5113897;28;20445;-60
2023/11/10 11:35:12;;;;;;;1.17;0.90;;;;;;;;;;5113684;28;20437;-59
2023/11/10 11:37:39;;;;;;;0.70;0.70;;;;;;;;;;5114062;28;20469;-59
2023/11/10 11:40:09;;;;;;;1.00;0.80;;;;;;;;;;5113758;28;20491;-59
2023/11/10 11:42:37;;;;;;;2.33;1.47;;;;;;;;;;5113179;28;20453;-59
2023/11/10 11:45:11;;;;;;;1.33;1.00;;;;;;;;;;5113045;28;20469;-58
2023/11/10 11:47:40;;;;;;;1.20;0.60;;;;;;;;;;5113816;28;20785;-59
2023/11/10 11:50:09;;;;;;;1.00;0.90;;;;;;;;;;5113829;28;20523;-59
2023/11/10 11:52:36;;;;;;;1.40;0.80;;;;;;;;;;5113780;28;20441;-59
2023/11/10 11:55:04;;;;;;;0.90;0.70;;;;;;;;;;5113693;28;20534;-59
2023/11/10 11:57:34;;;;;;;0.80;0.80;;;;;;;;;;5113390;28;20904;-59
2023/11/10 12:00:08;;;;;;;4.00;0.83;;;;;;;;;;5113797;28;20484;-59
2023/11/10 12:02:37;;;;;;;2.50;0.80;;;;;;;;;;5113674;28;20477;-59
2023/11/10 12:05:07;;;;;;;0.80;0.80;;;;;;;;;;5112642;28;20441;-59
2023/11/10 12:07:34;;;;;;;0.90;0.77;;;;;;;;;;5113188;28;20802;-59
2023/11/10 12:10:03;;;;;;;2.90;0.73;;;;;;;;;;5113336;28;20449;-59
2023/11/10 12:12:30;;;;;;;2.07;1.20;;;;;;;;;;5113471;28;20438;-59
2023/11/10 12:14:58;;;;;;;3.90;1.17;;;;;;;;;;5113024;28;20446;-59
2023/11/10 12:17:25;;;;;;;2.50;0.80;;;;;;;;;;5113166;28;20474;-59
2023/11/10 12:19:52;;;;;;;2.30;0.80;;;;;;;;;;5113491;28;20509;-59
2023/11/10 12:22:20;;;;;;;1.60;0.90;;;;;;;;;;5113323;28;20532;-59
2023/11/10 12:24:48;;;;;;;1.23;0.70;;;;;;;;;;5113199;28;20442;-59
2023/11/10 12:27:15;;;;;;;1.93;1.23;;;;;;;;;;5113391;28;20450;-59
2023/11/10 12:29:45;;;;;;;2.17;0.90;;;;;;;;;;5113343;28;20873;-59
2023/11/10 12:32:12;;;;;;;0.80;0.80;;;;;;;;;;5113379;28;20456;-59
2023/11/10 12:34:40;;;;;;;1.17;1.03;;;;;;;;;;5113518;28;20536;-59
2023/11/10 12:37:07;;;;;;;1.03;0.80;;;;;;;;;;5113117;28;20540;-59
2023/11/10 12:39:36;;;;;;;1.90;0.80;;;;;;;;;;5113294;28;20560;-59
2023/11/10 12:42:05;;;;;;;2.80;0.70;;;;;;;;;;5113207;28;20445;-59
2023/11/10 12:44:33;;;;;;;2.87;1.00;;;;;;;;;;5112958;28;20473;-59
2023/11/10 12:47:01;;;;;;;0.93;0.77;;;;;;;;;;5113068;28;20446;-59
2023/11/10 12:49:29;;;;;;;2.37;0.97;;;;;;;;;;5112986;28;20533;-59
2023/11/10 12:51:57;;;;;;;1.57;0.87;;;;;;;;;;5112993;28;20437;-59
2023/11/10 12:54:24;;;;;;;1.40;1.00;;;;;;;;;;5113234;28;20469;-59
2023/11/10 12:56:53;;;;;;;1.57;0.80;;;;;;;;;;5113133;28;20444;-59
2023/11/10 12:59:26;;;;;;;1.37;0.80;;;;;;;;;;5112772;28;20487;-59
2023/11/10 13:01:54;;;;;;;1.10;0.80;;;;;;;;;;5112904;28;20854;-63
2023/11/10 13:04:21;;;;;;;1.20;0.90;;;;;;;;;;5112957;28;20488;-59
2023/11/10 13:06:48;;;;;;;1.33;0.70;;;;;;;;;;5113215;28;20987;-60
2023/11/10 13:09:17;;;;;;;1.43;0.70;;;;;;;;;;5112926;28;20599;-60
2023/11/10 13:11:45;;;;;;;0.97;0.70;;;;;;;;;;5112875;28;20438;-59
2023/11/10 13:14:13;;;;;;;2.37;1.00;;;;;;;;;;5112855;28;20441;-59
2023/11/10 13:16:41;;;;;;;2.10;0.80;;;;;;;;;;5112740;28;20538;-59
2023/11/10 13:19:08;;;;;;;1.50;0.90;;;;;;;;;;5112957;28;20481;-59
2023/11/10 13:21:35;;;;;;;1.93;0.90;;;;;;;;;;5112888;28;20449;-59
2023/11/10 13:24:03;;;;;;;0.87;0.70;;;;;;;;;;5112849;28;20520;-59
2023/11/10 13:26:30;;;;;;;1.77;1.33;;;;;;;;;;5113051;28;20442;-59
2023/11/10 13:28:57;;;;;;;2.37;0.90;;;;;;;;;;5116406;28;20532;-59
2023/11/10 13:31:28;;;;;;;2.50;1.00;;;;;;;;;;5116392;28;20858;-59
2023/11/10 13:33:55;;;;;;;3.20;0.90;;;;;;;;;;5116641;28;20986;-59
2023/11/10 13:36:23;;;;;;;1.40;0.90;;;;;;;;;;5116639;28;20535;-59
2023/11/10 13:38:50;;;;;;;1.10;0.70;;;;;;;;;;5116324;28;20469;-60
2023/11/10 13:41:17;;;;;;;0.80;0.80;;;;;;;;;;5116275;28;20464;-59
2023/11/10 13:43:44;;;;;;;0.90;0.70;;;;;;;;;;5115960;28;20556;-60
2023/11/10 13:46:11;;;;;;;2.00;1.10;;;;;;;;;;5116373;28;20489;-59
2023/11/10 13:48:39;;;;;;;1.27;0.77;;;;;;;;;;5116278;28;20477;-60
2023/11/10 13:51:07;;;;;;;1.80;0.63;;;;;;;;;;5116056;28;20438;-60
2023/11/10 13:53:34;;;;;;;0.70;0.57;;;;;;;;;;5116130;28;20897;-59
2023/11/10 13:56:02;;;;;;;2.23;0.80;;;;;;;;;;5116478;28;20449;-59
2023/11/10 13:58:33;;;;;;;0.90;0.70;;;;;;;;;;5115811;28;20539;-59
2023/11/10 14:01:00;;;;;;;1.20;0.73;;;;;;;;;;5116132;28;20442;-59
2023/11/10 14:03:29;;;;;;;1.63;1.10;;;;;;;;;;5115995;28;20444;-59
2023/11/10 14:05:57;;;;;;;1.00;0.90;;;;;;;;;;5115804;28;20438;-59
2023/11/10 14:08:24;;;;;;;0.90;0.70;;;;;;;;;;5116022;28;20992;-59
2023/11/10 14:10:51;;;;;;;3.63;0.93;;;;;;;;;;5115605;28;20532;-59
2023/11/10 14:13:18;;;;;;;3.83;1.10;;;;;;;;;;5115823;28;20444;-59
2023/11/10 14:15:45;;;;;;;1.03;0.80;;;;;;;;;;5115750;28;20553;-59
2023/11/10 14:18:12;;;;;;;3.40;1.00;;;;;;;;;;5115464;28;21085;-60
2023/11/10 14:20:39;;;;;;;4.07;0.90;;;;;;;;;;5115478;28;20537;-59
2023/11/10 14:23:07;;;;;;;1.80;0.80;;;;;;;;;;5115431;28;20441;-59
2023/11/10 14:25:34;;;;;;;1.87;0.83;;;;;;;;;;5115273;28;20446;-59
2023/11/10 14:28:04;;;;;;;1.57;0.87;;;;;;;;;;5115261;28;20929;-59
2023/11/10 14:30:31;;;;;;;1.60;1.00;;;;;;;;;;5115437;28;20445;-60
2023/11/10 14:33:00;;;;;;;1.47;1.17;;;;;;;;;;5115322;28;20502;-60
2023/11/10 14:35:28;;;;;;;2.07;1.30;;;;;;;;;;5115401;28;20479;-60
2023/11/10 14:37:58;;;;;;;1.40;1.20;;;;;;;;;;5114701;28;20790;-60
2023/11/10 14:40:31;;;;;;;0.90;0.87;;;;;;;;;;5114917;28;20523;-60
2023/11/10 14:42:58;;;;;;;2.70;1.13;;;;;;;;;;5115121;28;20533;-59
2023/11/10 14:45:26;;;;;;;1.90;1.10;;;;;;;;;;5115169;28;20470;-59
2023/11/10 14:47:55;;;;;;;1.30;1.03;;;;;;;;;;5115015;28;20446;-60